Time;durP1;ratioP1;P1;durP2;ratioP2;P2;SDS_P1;SDS_P2;PMS_P1;PMS_P2;Temp;Humidity;BMP_temperature;BMP_pressure;BME280_temperature;BME280_humidity;BME280_pressure;Samples;Min_cycle;Max_cycle;Signal;HPM_P1;HPM_P2
2020/12/04 06:05:27;;;;;;;41.90;15.77;;;-1.30;97.30;;;;;;4920131;29;21004;-76
2020/12/04 06:08:01;;;;;;;38.73;14.30;;;-1.30;97.30;;;;;;4920975;29;20435;-77
2020/12/04 06:10:28;;;;;;;36.10;14.00;;;-1.20;97.30;;;;;;4919774;29;20508;-76
2020/12/04 06:12:54;;;;;;;35.03;13.67;;;-1.20;97.30;;;;;;4919412;29;20413;-76
2020/12/04 06:15:24;;;;;;;39.47;15.00;;;-1.20;97.30;;;;;;4918708;29;20420;-76
2020/12/04 06:17:50;;;;;;;34.03;14.60;;;-1.10;97.30;;;;;;4918916;29;20421;-76
2020/12/04 06:20:21;;;;;;;31.83;13.80;;;-1.10;97.30;;;;;;4918930;29;20456;-77
2020/12/04 06:23:12;;;;;;;35.00;13.20;;;-1.10;97.30;;;;;;4918941;29;20499;-77
2020/12/04 06:25:54;;;;;;;30.50;13.27;;;-1.00;97.30;;;;;;4918976;29;20428;-77
2020/12/04 06:28:29;;;;;;;30.83;11.90;;;-1.00;97.30;;;;;;4919286;29;20424;-76
2020/12/04 06:31:09;;;;;;;33.67;13.47;;;-1.00;97.30;;;;;;4921148;29;20911;-77
2020/12/04 06:33:41;;;;;;;32.70;12.97;;;-0.90;97.30;;;;;;4922618;29;20525;-76
2020/12/04 06:36:09;;;;;;;28.03;12.40;;;-0.90;97.30;;;;;;4919405;29;20452;-76
2020/12/04 06:38:40;;;;;;;36.60;13.90;;;-0.80;97.30;;;;;;4918082;29;20791;-76
2020/12/04 06:41:21;;;;;;;31.23;12.80;;;-0.80;97.30;;;;;;4918293;29;20460;-75
2020/12/04 06:43:50;;;;;;;29.77;13.17;;;-0.80;97.30;;;;;;4919277;29;20428;-76
2020/12/04 06:46:35;;;;;;;33.30;13.03;;;-0.70;97.30;;;;;;4920662;29;20433;-75
2020/12/04 06:52:14;;;;;;;30.70;11.90;;;-0.60;97.30;;;;;;4918922;29;20433;-75
2020/12/04 06:54:44;;;;;;;26.80;11.20;;;-0.60;97.30;;;;;;4918197;29;20424;-75
2020/12/04 06:57:10;;;;;;;24.83;11.40;;;-0.50;97.30;;;;;;4919177;29;20413;-75
2020/12/04 06:59:41;;;;;;;31.90;12.60;;;-0.50;97.30;;;;;;4917560;29;20842;-74
2020/12/04 07:02:08;;;;;;;32.60;13.23;;;-0.40;97.30;;;;;;4918539;29;20437;-74
2020/12/04 07:04:37;;;;;;;32.50;12.97;;;-0.40;97.30;;;;;;4917596;29;20456;-74
2020/12/04 07:07:05;;;;;;;24.83;11.27;;;-0.40;97.30;;;;;;4918468;29;20421;-75
2020/12/04 07:09:31;;;;;;;25.17;11.47;;;-0.30;97.30;;;;;;4919494;29;20907;-75
2020/12/04 07:11:59;;;;;;;26.20;11.73;;;-0.20;97.30;;;;;;4918745;29;20496;-75
2020/12/04 07:14:25;;;;;;;29.27;11.83;;;-0.20;97.30;;;;;;4917603;29;20516;-74
2020/12/04 07:16:55;;;;;;;25.73;9.70;;;-0.10;97.30;;;;;;4917414;29;20420;-74
2020/12/04 07:19:22;;;;;;;27.80;11.83;;;0.00;97.30;;;;;;4917829;29;20488;-75
2020/12/04 07:21:48;;;;;;;26.90;11.90;;;0.00;97.30;;;;;;4918239;29;20455;-75
2020/12/04 07:24:13;;;;;;;28.27;12.43;;;0.10;97.30;;;;;;4918813;29;20413;-75
2020/12/04 07:26:51;;;;;;;23.40;11.30;;;0.10;97.30;;;;;;4917941;29;20449;-75
2020/12/04 07:29:17;;;;;;;28.57;12.50;;;0.10;97.30;;;;;;4917936;29;20208;-75
2020/12/04 07:31:48;;;;;;;26.57;11.60;;;0.20;97.30;;;;;;4918221;29;20452;-75
2020/12/04 07:34:21;;;;;;;28.80;11.43;;;0.20;97.30;;;;;;4917573;29;20934;-74
2020/12/04 07:36:49;;;;;;;30.13;11.10;;;0.30;97.30;;;;;;4917684;29;20417;-75
2020/12/04 07:39:40;;;;;;;25.10;13.17;;;0.30;97.30;;;;;;4917878;29;20452;-75
2020/12/04 07:42:08;;;;;;;29.73;10.30;;;0.40;97.30;;;;;;4917560;29;20476;-75
2020/12/04 07:44:34;;;;;;;25.17;10.57;;;0.40;97.30;;;;;;4916875;29;20440;-74
2020/12/04 07:47:04;;;;;;;24.20;10.40;;;0.50;97.30;;;;;;4917795;29;20420;-74
2020/12/04 07:49:31;;;;;;;27.50;11.40;;;0.50;97.30;;;;;;4917367;29;20233;-74
2020/12/04 07:52:18;;;;;;;27.07;12.43;;;0.60;97.30;;;;;;4917443;29;20456;-73
2020/12/04 07:54:44;;;;;;;27.27;11.30;;;0.60;97.30;;;;;;4917280;29;20420;-73
2020/12/04 07:57:11;;;;;;;25.47;9.80;;;0.70;97.30;;;;;;4917413;29;20452;-73
2020/12/04 07:59:39;;;;;;;28.13;10.87;;;0.80;97.30;;;;;;4917226;29;20460;-73
2020/12/04 08:02:06;;;;;;;24.17;11.03;;;0.80;97.30;;;;;;4917244;29;20436;-73
2020/12/04 08:04:33;;;;;;;23.80;10.10;;;0.90;97.30;;;;;;4918073;29;20451;-73
2020/12/04 08:07:10;;;;;;;22.97;10.00;;;0.90;97.30;;;;;;4917187;29;20504;-73
2020/12/04 08:09:43;;;;;;;17.03;8.93;;;0.90;97.30;;;;;;4916926;29;20427;-73
2020/12/04 08:12:12;;;;;;;25.47;10.77;;;1.00;97.30;;;;;;4917168;29;20535;-73
2020/12/04 08:14:40;;;;;;;24.23;9.60;;;1.00;97.30;;;;;;4916641;29;20432;-73
2020/12/04 08:17:06;;;;;;;27.53;10.60;;;1.10;97.30;;;;;;4917394;29;20435;-73
2020/12/04 08:19:35;;;;;;;20.13;10.27;;;1.10;97.30;;;;;;4917193;29;20555;-73
2020/12/04 08:22:03;;;;;;;28.10;11.57;;;1.20;97.30;;;;;;4918085;29;20896;-73
2020/12/04 08:24:50;;;;;;;23.60;11.63;;;1.20;97.30;;;;;;4916892;29;20427;-73
2020/12/04 08:27:17;;;;;;;22.70;9.70;;;1.30;97.30;;;;;;4916577;29;20417;-72
2020/12/04 08:29:46;;;;;;;22.80;9.90;;;1.30;97.30;;;;;;4916706;29;20475;-72
2020/12/04 08:32:21;;;;;;;19.10;9.33;;;1.30;97.30;;;;;;4916480;29;20455;-73
2020/12/04 08:34:48;;;;;;;19.77;9.77;;;1.40;97.30;;;;;;4916526;29;20569;-73
2020/12/04 08:37:16;;;;;;;22.23;11.77;;;1.40;97.30;;;;;;4916767;29;20483;-73
2020/12/04 08:39:49;;;;;;;18.60;9.80;;;1.50;97.30;;;;;;4917103;29;20551;-73
2020/12/04 08:42:29;;;;;;;23.50;9.73;;;1.50;97.30;;;;;;4915848;29;20459;-73
2020/12/04 08:44:56;;;;;;;24.10;11.00;;;1.50;97.30;;;;;;4915898;29;20491;-73
2020/12/04 08:47:30;;;;;;;22.20;9.97;;;1.60;97.30;;;;;;4916661;29;20503;-73
2020/12/04 08:49:56;;;;;;;18.57;9.90;;;1.60;97.30;;;;;;4916404;29;20519;-73
2020/12/04 08:52:34;;;;;;;17.93;9.73;;;1.60;97.30;;;;;;4917569;29;20800;-73
2020/12/04 08:55:08;;;;;;;17.17;9.30;;;1.70;97.30;;;;;;4917391;29;20455;-73
2020/12/04 08:57:33;;;;;;;21.93;10.27;;;1.70;97.30;;;;;;4916530;29;20613;-73
2020/12/04 08:59:59;;;;;;;21.33;10.23;;;1.70;97.30;;;;;;4916293;29;20908;-73
2020/12/04 09:02:25;;;;;;;21.97;10.20;;;1.70;97.30;;;;;;4916242;29;20201;-73
2020/12/04 09:04:51;;;;;;;18.17;9.77;;;1.80;97.30;;;;;;4915941;29;20196;-73
2020/12/04 09:07:16;;;;;;;21.43;9.50;;;1.80;97.30;;;;;;4916279;29;20425;-73
2020/12/04 09:09:42;;;;;;;22.53;9.97;;;1.80;97.30;;;;;;4915425;29;20213;-73
2020/12/04 09:12:08;;;;;;;21.93;9.90;;;1.80;97.30;;;;;;4915118;29;20851;-73
2020/12/04 09:14:34;;;;;;;18.63;10.00;;;1.90;97.30;;;;;;4914598;29;20517;-73
2020/12/04 09:16:59;;;;;;;21.13;9.50;;;2.00;97.30;;;;;;4915491;29;20553;-73
2020/12/04 09:19:25;;;;;;;26.80;10.63;;;2.00;97.30;;;;;;4915299;29;20226;-73
2020/12/04 09:21:51;;;;;;;20.00;9.70;;;2.10;97.30;;;;;;4915700;29;20563;-74
2020/12/04 09:24:16;;;;;;;25.90;10.00;;;2.10;97.30;;;;;;4915221;29;20180;-74
2020/12/04 09:26:42;;;;;;;22.93;10.57;;;2.20;97.30;;;;;;4915791;29;20172;-74
2020/12/04 09:29:08;;;;;;;22.47;9.90;;;2.20;97.30;;;;;;4915822;29;20646;-73
2020/12/04 09:31:33;;;;;;;23.27;10.63;;;2.30;97.30;;;;;;4915736;29;20290;-73
2020/12/04 09:33:59;;;;;;;23.10;10.57;;;2.30;97.30;;;;;;4915284;29;20517;-74
2020/12/04 09:36:25;;;;;;;19.03;9.40;;;2.40;97.30;;;;;;4916474;29;20203;-74
2020/12/04 09:38:50;;;;;;;27.50;12.10;;;2.40;97.30;;;;;;4915690;29;20236;-74
2020/12/04 09:41:16;;;;;;;19.20;9.40;;;2.40;97.30;;;;;;4916731;29;20200;-73
2020/12/04 09:43:42;;;;;;;22.13;8.97;;;2.50;97.30;;;;;;4916520;29;20199;-74
2020/12/04 09:46:07;;;;;;;22.70;9.90;;;2.50;97.30;;;;;;4915234;29;20185;-74
2020/12/04 09:48:34;;;;;;;20.80;9.60;;;2.50;97.30;;;;;;4915781;29;20638;-74
2020/12/04 09:51:00;;;;;;;21.97;9.13;;;2.60;97.30;;;;;;4915596;29;20224;-73
2020/12/04 09:53:25;;;;;;;22.77;10.23;;;2.60;97.30;;;;;;4915340;29;20428;-74
2020/12/04 09:55:51;;;;;;;21.37;10.23;;;2.70;97.30;;;;;;4915442;29;20195;-73
2020/12/04 09:58:17;;;;;;;18.97;8.87;;;2.70;97.30;;;;;;4915451;29;20273;-73
2020/12/04 10:00:42;;;;;;;18.80;8.87;;;2.70;97.30;;;;;;4916495;29;20223;-73
2020/12/04 10:03:08;;;;;;;18.40;9.13;;;2.80;97.30;;;;;;4915151;29;20192;-74
2020/12/04 10:05:34;;;;;;;22.93;9.30;;;2.80;97.30;;;;;;4915055;29;20268;-74
2020/12/04 10:07:59;;;;;;;21.50;9.30;;;2.80;97.30;;;;;;4915408;29;20184;-73
2020/12/04 10:10:25;;;;;;;18.97;9.13;;;2.80;97.30;;;;;;4915370;29;20188;-72
2020/12/04 10:12:50;;;;;;;23.80;10.17;;;2.80;97.30;;;;;;4916710;29;20176;-72
2020/12/04 10:15:16;;;;;;;19.30;10.00;;;2.90;97.30;;;;;;4916265;29;20237;-74
2020/12/04 10:17:47;;;;;;;23.37;10.00;;;2.90;97.30;;;;;;4915044;29;20275;-74
2020/12/04 10:20:13;;;;;;;21.50;9.30;;;3.00;97.30;;;;;;4897692;29;20193;-74
2020/12/04 10:22:38;;;;;;;20.87;10.17;;;3.00;97.30;;;;;;4896646;29;20450;-74
2020/12/04 10:25:04;;;;;;;23.20;10.33;;;3.10;97.30;;;;;;4896591;29;20169;-74
2020/12/04 10:27:30;;;;;;;20.93;9.80;;;3.10;97.30;;;;;;4896483;29;20549;-73
2020/12/04 10:29:55;;;;;;;22.47;10.87;;;3.10;97.30;;;;;;4896699;29;20185;-74
2020/12/04 10:32:21;;;;;;;27.03;11.20;;;3.10;97.30;;;;;;4896535;29;20208;-74
2020/12/04 10:34:47;;;;;;;24.60;10.67;;;3.10;97.30;;;;;;4897103;29;20604;-74
2020/12/04 10:37:13;;;;;;;23.53;10.37;;;3.10;97.30;;;;;;4900767;29;20287;-75
2020/12/04 10:39:38;;;;;;;23.90;9.50;;;3.10;97.30;;;;;;4899902;29;20216;-74
2020/12/04 10:42:04;;;;;;;25.70;10.00;;;3.10;97.30;;;;;;4907941;29;20456;-74
2020/12/04 10:44:32;;;;;;;19.17;9.00;;;3.10;97.30;;;;;;4918557;29;20332;-74
2020/12/04 10:46:59;;;;;;;23.73;9.27;;;3.10;97.30;;;;;;4919802;29;20455;-74
2020/12/04 10:49:25;;;;;;;24.57;11.73;;;3.10;97.30;;;;;;4918898;29;20523;-74
2020/12/04 10:51:57;;;;;;;27.13;11.00;;;3.10;97.30;;;;;;4918466;29;20447;-74
2020/12/04 10:54:23;;;;;;;24.03;10.20;;;3.10;97.30;;;;;;4918122;29;20439;-74
2020/12/04 10:56:53;;;;;;;20.00;9.60;;;3.20;97.30;;;;;;4918494;29;20428;-74
2020/12/04 10:59:19;;;;;;;23.20;9.93;;;3.20;97.30;;;;;;4918318;29;20468;-74
2020/12/04 11:01:49;;;;;;;21.40;9.20;;;3.20;97.30;;;;;;4918316;29;20779;-74
2020/12/04 11:06:59;;;;;;;27.77;10.20;;;3.20;97.30;;;;;;4919483;29;20427;-75
2020/12/04 11:09:25;;;;;;;22.80;9.87;;;3.30;97.30;;;;;;4918282;29;20428;-75
2020/12/04 11:11:51;;;;;;;17.27;9.10;;;3.30;97.30;;;;;;4918177;29;20670;-74
2020/12/04 11:14:17;;;;;;;23.63;10.17;;;3.30;97.30;;;;;;4917777;29;20212;-74
2020/12/04 11:16:45;;;;;;;21.00;9.07;;;3.30;97.30;;;;;;4918255;29;20868;-74
2020/12/04 11:19:11;;;;;;;17.50;9.10;;;3.40;97.30;;;;;;4917791;29;20639;-74
2020/12/04 11:21:36;;;;;;;21.13;10.50;;;3.40;97.30;;;;;;4918874;29;20492;-75
2020/12/04 11:24:03;;;;;;;20.50;9.20;;;3.40;97.30;;;;;;4918213;29;20420;-75
2020/12/04 11:26:29;;;;;;;22.30;9.47;;;3.40;97.30;;;;;;4917438;29;20655;-73
2020/12/04 11:28:54;;;;;;;19.20;9.30;;;3.40;97.30;;;;;;4918799;29;20428;-74
2020/12/04 11:31:20;;;;;;;21.50;9.40;;;3.50;97.30;;;;;;4918660;29;20271;-75
2020/12/04 11:33:46;;;;;;;22.00;9.23;;;3.50;97.30;;;;;;4918847;29;20715;-74
2020/12/04 11:36:12;;;;;;;23.90;10.57;;;3.60;97.30;;;;;;4918765;29;20183;-74
2020/12/04 11:38:38;;;;;;;21.33;10.57;;;3.60;97.30;;;;;;4918768;29;20504;-74
2020/12/04 11:41:03;;;;;;;25.60;11.40;;;3.70;97.30;;;;;;4917285;29;20563;-74
2020/12/04 11:43:29;;;;;;;22.97;10.27;;;3.70;97.30;;;;;;4916784;29;20223;-74
2020/12/04 11:45:56;;;;;;;21.80;10.67;;;3.70;97.30;;;;;;4917102;29;20177;-74
2020/12/04 11:48:21;;;;;;;20.97;9.77;;;3.70;97.30;;;;;;4917453;29;20272;-74
2020/12/04 11:50:47;;;;;;;19.20;10.53;;;3.70;97.30;;;;;;4917166;29;20488;-74
2020/12/04 11:53:14;;;;;;;19.33;10.10;;;3.70;97.30;;;;;;4916988;29;20191;-74
2020/12/04 11:55:39;;;;;;;18.20;9.80;;;3.70;97.30;;;;;;4916816;29;20721;-74
2020/12/04 11:58:05;;;;;;;27.17;11.00;;;3.80;97.30;;;;;;4916912;29;20520;-74
2020/12/04 12:00:30;;;;;;;23.57;10.30;;;3.70;97.30;;;;;;4916996;29;20215;-74
2020/12/04 12:02:56;;;;;;;21.80;9.47;;;3.70;97.30;;;;;;4917248;29;20665;-74
2020/12/04 12:05:22;;;;;;;20.97;9.67;;;3.70;97.30;;;;;;4916868;29;20236;-74
2020/12/04 12:07:48;;;;;;;19.73;9.60;;;3.70;97.30;;;;;;4916816;29;20618;-74
2020/12/04 12:10:13;;;;;;;22.83;10.50;;;3.70;97.30;;;;;;4918052;29;20253;-74
2020/12/04 12:12:39;;;;;;;19.93;9.70;;;3.70;97.30;;;;;;4916665;29;20211;-74
2020/12/04 12:15:05;;;;;;;23.73;9.43;;;3.80;97.30;;;;;;4916700;29;20208;-74
2020/12/04 12:17:31;;;;;;;20.90;10.47;;;3.80;97.30;;;;;;4916736;29;20185;-74
2020/12/04 12:19:57;;;;;;;22.83;9.30;;;3.90;97.30;;;;;;4916694;29;20462;-74
2020/12/04 12:22:23;;;;;;;18.70;9.50;;;3.90;97.30;;;;;;4916900;29;20201;-74
2020/12/04 12:24:48;;;;;;;24.00;11.10;;;4.00;97.30;;;;;;4917792;29;20413;-74
2020/12/04 12:27:14;;;;;;;19.17;10.10;;;4.10;97.30;;;;;;4917525;29;20183;-74
2020/12/04 12:29:40;;;;;;;22.67;9.77;;;4.20;97.30;;;;;;4916543;29;20232;-74
2020/12/04 12:32:07;;;;;;;20.77;10.10;;;4.30;97.30;;;;;;4916457;29;20600;-75
2020/12/04 12:37:18;;;;;;;21.50;12.10;;;4.50;97.30;;;;;;4918033;29;20784;-74
2020/12/04 12:39:43;;;;;;;22.97;11.90;;;4.70;97.30;;;;;;4916149;29;20456;-74
2020/12/04 12:42:11;;;;;;;23.20;11.40;;;5.00;97.30;;;;;;4916136;29;20440;-74
2020/12/04 12:44:37;;;;;;;22.10;11.40;;;5.60;97.30;;;;;;4915975;29;20193;-74
2020/12/04 12:47:04;;;;;;;22.70;10.63;;;6.20;96.50;;;;;;4916440;29;20422;-74
2020/12/04 12:49:30;;;;;;;18.80;10.00;;;6.80;94.10;;;;;;4917325;29;20421;-74
2020/12/04 12:51:57;;;;;;;20.90;10.37;;;7.10;92.90;;;;;;4916375;29;20476;-74
2020/12/04 12:54:27;;;;;;;24.50;10.40;;;7.10;92.30;;;;;;4915680;29;20488;-74
2020/12/04 12:56:53;;;;;;;24.20;11.93;;;7.30;91.80;;;;;;4914201;29;20490;-74
2020/12/04 12:59:20;;;;;;;24.40;11.07;;;7.50;91.50;;;;;;4913636;29;21041;-73
2020/12/04 13:01:46;;;;;;;22.70;10.43;;;7.80;90.80;;;;;;4916385;29;20456;-74
2020/12/04 13:04:12;;;;;;;23.13;11.50;;;7.70;90.20;;;;;;4917004;29;20955;-73
2020/12/04 13:06:45;;;;;;;21.77;9.60;;;7.50;89.90;;;;;;4915931;29;20452;-73
2020/12/04 13:09:11;;;;;;;18.80;9.67;;;6.90;90.50;;;;;;4916072;29;21001;-73
2020/12/04 13:11:37;;;;;;;20.90;10.83;;;6.50;91.50;;;;;;4915980;29;20504;-73
2020/12/04 13:14:04;;;;;;;18.90;9.30;;;6.20;92.20;;;;;;4916415;29;20940;-73
2020/12/04 13:16:36;;;;;;;20.30;9.27;;;6.50;92.90;;;;;;4915815;29;20990;-73
2020/12/04 13:19:02;;;;;;;19.40;10.00;;;7.00;92.40;;;;;;4915546;29;20425;-73
2020/12/04 13:21:54;;;;;;;24.73;10.37;;;7.30;91.00;;;;;;4915426;29;20441;-73
2020/12/04 13:24:15;;;;;;;17.30;10.00;;;7.20;90.30;;;;;;4916711;29;20421;-74
2020/12/04 13:26:41;;;;;;;15.77;9.10;;;7.30;90.40;;;;;;4915799;29;20441;-74
2020/12/04 13:29:07;;;;;;;18.50;10.13;;;7.70;89.80;;;;;;4915840;29;20436;-73
2020/12/04 13:31:33;;;;;;;21.10;9.87;;;8.00;89.20;;;;;;4915689;29;20196;-74
2020/12/04 13:33:59;;;;;;;17.93;9.83;;;8.20;88.50;;;;;;4915146;29;20520;-73
2020/12/04 13:36:25;;;;;;;19.13;9.70;;;8.40;88.00;;;;;;4915578;29;20511;-73
2020/12/04 13:38:51;;;;;;;18.30;10.10;;;8.60;87.80;;;;;;4915563;29;20181;-73
2020/12/04 13:41:16;;;;;;;16.43;8.37;;;8.60;86.90;;;;;;4915603;29;20475;-73
2020/12/04 13:43:42;;;;;;;19.07;9.97;;;8.50;87.20;;;;;;4917187;29;20220;-73
2020/12/04 13:46:08;;;;;;;19.10;10.17;;;8.10;87.70;;;;;;4915486;29;20173;-73
2020/12/04 13:48:33;;;;;;;18.90;10.40;;;8.10;88.20;;;;;;4915057;29;20188;-73
2020/12/04 13:50:59;;;;;;;20.20;9.50;;;8.10;88.20;;;;;;4915292;29;20220;-73
2020/12/04 13:53:25;;;;;;;21.33;10.20;;;8.20;88.10;;;;;;4915251;29;20187;-73
2020/12/04 13:55:51;;;;;;;17.90;10.27;;;8.10;88.10;;;;;;4916397;29;20252;-73
2020/12/04 13:58:17;;;;;;;19.47;10.20;;;7.80;88.10;;;;;;4916656;29;20552;-73
2020/12/04 14:00:42;;;;;;;18.47;10.50;;;7.30;89.10;;;;;;4915013;29;20465;-73
2020/12/04 14:03:08;;;;;;;15.93;9.53;;;6.80;90.30;;;;;;4914905;29;20643;-73
2020/12/04 14:05:34;;;;;;;18.57;10.53;;;6.30;91.50;;;;;;4916644;29;20236;-73
2020/12/04 14:07:59;;;;;;;18.23;9.50;;;5.90;92.50;;;;;;4915349;29;20528;-73
2020/12/04 14:10:25;;;;;;;19.70;10.50;;;5.60;93.50;;;;;;4918591;29;20184;-73
2020/12/04 14:12:50;;;;;;;21.73;10.70;;;5.40;94.00;;;;;;4919226;29;20216;-72
2020/12/04 14:15:16;;;;;;;16.80;9.53;;;5.20;94.60;;;;;;4918727;29;20255;-73
2020/12/04 14:17:42;;;;;;;19.40;9.77;;;5.10;95.10;;;;;;4919885;29;20176;-73
2020/12/04 14:20:08;;;;;;;21.17;11.30;;;5.00;95.50;;;;;;4918699;29;20204;-72
2020/12/04 14:22:33;;;;;;;21.20;10.50;;;4.90;95.90;;;;;;4919923;29;20189;-73
2020/12/04 14:24:59;;;;;;;17.40;9.97;;;4.80;96.30;;;;;;4919739;29;20181;-73
2020/12/04 14:27:24;;;;;;;22.53;10.73;;;4.70;96.50;;;;;;4918920;29;20271;-72
2020/12/04 14:29:50;;;;;;;18.60;9.90;;;4.60;96.60;;;;;;4913017;29;20197;-73
2020/12/04 14:32:16;;;;;;;21.90;10.67;;;4.60;96.80;;;;;;4910285;29;20256;-73
2020/12/04 14:34:43;;;;;;;20.90;11.63;;;4.50;96.90;;;;;;4917134;29;20188;-73
2020/12/04 14:37:09;;;;;;;20.80;11.10;;;4.50;97.10;;;;;;4918482;29;20204;-73
2020/12/04 14:39:35;;;;;;;22.17;10.40;;;4.40;97.30;;;;;;4900758;29;20488;-73
2020/12/04 14:42:00;;;;;;;20.00;10.80;;;4.40;97.30;;;;;;4900760;29;20895;-73
2020/12/04 14:44:26;;;;;;;23.00;11.17;;;4.30;97.30;;;;;;4899063;29;20564;-73
2020/12/04 14:46:52;;;;;;;24.00;10.80;;;4.30;97.30;;;;;;4909423;29;20180;-73
2020/12/04 14:49:21;;;;;;;18.70;10.50;;;4.20;97.30;;;;;;4919037;29;20254;-73
2020/12/04 14:51:46;;;;;;;25.63;11.63;;;4.10;97.30;;;;;;4917700;29;20236;-73
2020/12/04 14:54:12;;;;;;;23.60;13.27;;;4.00;97.30;;;;;;4917722;29;20504;-73
2020/12/04 14:56:40;;;;;;;24.77;12.67;;;4.00;97.30;;;;;;4918406;29;20169;-73
2020/12/04 14:59:06;;;;;;;26.63;12.73;;;3.90;97.30;;;;;;4917898;29;20213;-73
2020/12/04 15:01:32;;;;;;;28.80;14.30;;;3.80;97.30;;;;;;4917588;29;20529;-73
2020/12/04 15:03:57;;;;;;;32.37;16.57;;;3.70;97.30;;;;;;4917572;29;20283;-73
2020/12/04 15:06:23;;;;;;;30.40;16.70;;;3.70;97.30;;;;;;4917660;29;20686;-73
2020/12/04 15:08:49;;;;;;;31.73;15.47;;;3.60;97.30;;;;;;4917564;29;20203;-73
2020/12/04 15:11:14;;;;;;;22.17;12.60;;;3.50;97.30;;;;;;4917716;29;20544;-73
2020/12/04 15:13:43;;;;;;;21.13;12.10;;;3.50;97.30;;;;;;4917397;29;20674;-73
2020/12/04 15:16:11;;;;;;;24.80;12.57;;;3.50;97.30;;;;;;4918569;29;20186;-73
2020/12/04 15:18:36;;;;;;;22.20;12.00;;;3.40;97.30;;;;;;4902015;29;20584;-73
2020/12/04 15:21:03;;;;;;;27.20;12.90;;;3.30;97.30;;;;;;4916568;29;21028;-73
2020/12/04 15:23:28;;;;;;;22.33;11.60;;;3.30;97.30;;;;;;4917773;29;20211;-73
2020/12/04 15:25:55;;;;;;;25.80;13.10;;;3.30;97.30;;;;;;4915995;29;20412;-73
2020/12/04 15:28:21;;;;;;;24.40;12.63;;;3.30;97.30;;;;;;4917445;29;20177;-75
2020/12/04 15:30:48;;;;;;;28.07;13.73;;;3.30;97.30;;;;;;4916585;29;20452;-73
2020/12/04 15:33:14;;;;;;;22.57;11.67;;;3.20;97.30;;;;;;4917275;29;20208;-73
2020/12/04 15:35:40;;;;;;;24.27;12.77;;;3.20;97.30;;;;;;4917241;29;20427;-73
2020/12/04 15:38:06;;;;;;;26.63;13.20;;;3.20;97.30;;;;;;4917251;29;20507;-74
2020/12/04 15:40:34;;;;;;;23.53;12.00;;;3.20;97.30;;;;;;4916632;29;20869;-74
2020/12/04 15:43:00;;;;;;;25.47;12.80;;;3.20;97.30;;;;;;4917232;29;20208;-74
2020/12/04 15:45:25;;;;;;;25.50;12.90;;;3.10;97.30;;;;;;4916957;29;20429;-73
2020/12/04 15:47:51;;;;;;;25.47;13.60;;;3.10;97.30;;;;;;4917121;29;20431;-74
2020/12/04 15:50:17;;;;;;;25.17;13.00;;;3.10;97.30;;;;;;4914433;29;20180;-74
2020/12/04 15:52:44;;;;;;;24.07;12.53;;;3.10;97.30;;;;;;4917146;29;20180;-74
2020/12/04 15:55:10;;;;;;;26.87;12.80;;;3.00;97.30;;;;;;4916982;29;20256;-74
2020/12/04 15:57:35;;;;;;;28.53;14.20;;;3.00;97.30;;;;;;4918601;29;20445;-73
2020/12/04 16:00:02;;;;;;;31.50;15.00;;;3.00;97.30;;;;;;4917221;29;20292;-73
2020/12/04 16:02:28;;;;;;;25.27;13.13;;;3.00;97.30;;;;;;4916821;29;20200;-73
2020/12/04 16:04:54;;;;;;;26.63;12.70;;;2.90;97.30;;;;;;4916872;29;20512;-73
2020/12/04 16:07:20;;;;;;;28.70;14.30;;;2.90;97.30;;;;;;4916737;29;20576;-73
2020/12/04 16:09:46;;;;;;;30.80;15.00;;;2.90;97.30;;;;;;4918443;29;20177;-73
2020/12/04 16:12:13;;;;;;;31.60;15.80;;;2.80;97.30;;;;;;4916442;29;20204;-73
2020/12/04 16:14:40;;;;;;;29.07;14.87;;;2.80;97.30;;;;;;4917679;29;20530;-73
2020/12/04 16:17:08;;;;;;;30.70;14.83;;;2.80;97.30;;;;;;4916525;29;20421;-73
2020/12/04 16:19:33;;;;;;;31.80;15.30;;;2.70;97.30;;;;;;4916877;29;20555;-73
2020/12/04 16:21:59;;;;;;;28.47;13.97;;;2.70;97.30;;;;;;4917049;29;20520;-73
2020/12/04 16:24:26;;;;;;;27.47;14.77;;;2.70;97.30;;;;;;4916684;29;20445;-73
2020/12/04 16:26:52;;;;;;;31.00;14.70;;;2.70;97.30;;;;;;4917100;29;20232;-73
2020/12/04 16:29:19;;;;;;;33.10;15.87;;;2.60;97.30;;;;;;4917491;29;20461;-73
2020/12/04 16:31:45;;;;;;;30.20;15.80;;;2.60;97.30;;;;;;4916929;29;20440;-73
2020/12/04 16:34:12;;;;;;;26.60;14.20;;;2.60;97.30;;;;;;4917862;29;20424;-73
2020/12/04 16:36:40;;;;;;;34.80;15.90;;;2.60;97.30;;;;;;4917008;29;20957;-73
2020/12/04 16:39:09;;;;;;;27.60;14.50;;;2.60;97.30;;;;;;4916828;29;20412;-73
2020/12/04 16:41:39;;;;;;;35.07;16.23;;;2.50;97.30;;;;;;4917762;29;20480;-72
2020/12/04 16:44:08;;;;;;;26.47;14.67;;;2.50;97.30;;;;;;4917161;29;20416;-73
2020/12/04 16:46:34;;;;;;;30.30;14.47;;;2.50;97.30;;;;;;4917249;29;20432;-73
2020/12/04 16:49:00;;;;;;;29.40;13.87;;;2.50;97.30;;;;;;4916481;29;20424;-73
2020/12/04 16:51:25;;;;;;;30.40;14.93;;;2.50;97.30;;;;;;4916347;29;20947;-72
2020/12/04 16:53:51;;;;;;;32.53;16.43;;;2.50;97.30;;;;;;4916355;29;20651;-72
2020/12/04 16:56:21;;;;;;;34.13;18.07;;;2.50;97.30;;;;;;4916186;29;20187;-73
2020/12/04 16:58:47;;;;;;;30.50;15.27;;;2.50;97.30;;;;;;4916505;29;20597;-73
2020/12/04 17:01:14;;;;;;;28.27;14.40;;;2.50;97.30;;;;;;4916445;29;20496;-73
2020/12/04 17:03:40;;;;;;;30.63;14.90;;;2.40;97.30;;;;;;4916041;29;20447;-73
2020/12/04 17:06:06;;;;;;;31.43;15.33;;;2.40;97.30;;;;;;4916311;29;20432;-73
2020/12/04 17:08:32;;;;;;;33.67;15.20;;;2.40;97.30;;;;;;4917511;29;20596;-73
2020/12/04 17:10:57;;;;;;;28.43;15.20;;;2.30;97.30;;;;;;4915799;29;20208;-72
2020/12/04 17:13:25;;;;;;;35.27;15.70;;;2.30;97.30;;;;;;4916046;29;20432;-73
2020/12/04 17:15:54;;;;;;;31.63;15.90;;;2.30;97.30;;;;;;4915806;29;21770;-73
2020/12/04 17:18:20;;;;;;;29.53;15.40;;;2.30;97.30;;;;;;4915768;29;20448;-73
2020/12/04 17:20:46;;;;;;;35.73;15.90;;;2.30;97.30;;;;;;4915970;29;20558;-73
2020/12/04 17:23:12;;;;;;;34.93;16.97;;;2.30;97.30;;;;;;4916991;29;20412;-73
2020/12/04 17:25:38;;;;;;;30.77;15.93;;;2.30;97.30;;;;;;4916103;29;20424;-73
2020/12/04 17:28:03;;;;;;;31.93;16.10;;;2.30;97.30;;;;;;4917186;29;20424;-73
2020/12/04 17:30:29;;;;;;;31.40;15.67;;;2.20;97.30;;;;;;4915635;29;20180;-73
2020/12/04 17:32:56;;;;;;;31.33;16.50;;;2.20;97.30;;;;;;4916131;29;20188;-73
2020/12/04 17:35:22;;;;;;;29.07;15.40;;;2.20;97.30;;;;;;4915825;29;20194;-73
2020/12/04 17:37:48;;;;;;;35.03;16.30;;;2.20;97.30;;;;;;4916017;29;20420;-74
2020/12/04 17:40:14;;;;;;;30.37;16.37;;;2.20;97.30;;;;;;4916216;29;20644;-74
2020/12/04 17:42:44;;;;;;;29.27;15.50;;;2.20;97.30;;;;;;4915801;29;20566;-73
2020/12/04 17:45:11;;;;;;;34.37;16.57;;;2.30;97.30;;;;;;4918717;29;20197;-73
2020/12/04 17:47:37;;;;;;;33.87;16.17;;;2.30;97.30;;;;;;4919477;29;20516;-72
2020/12/04 17:50:11;;;;;;;35.00;15.77;;;2.30;97.30;;;;;;4919769;29;20487;-74
2020/12/04 17:52:37;;;;;;;33.23;14.80;;;2.30;97.30;;;;;;4920850;29;20436;-74
2020/12/04 17:55:04;;;;;;;33.13;14.13;;;2.30;97.30;;;;;;4919585;29;20429;-73
2020/12/04 17:57:30;;;;;;;35.73;15.43;;;2.30;97.30;;;;;;4919681;29;20432;-74
2020/12/04 17:59:55;;;;;;;29.70;15.87;;;2.30;97.30;;;;;;4919541;29;20539;-74
2020/12/04 18:02:22;;;;;;;29.67;15.13;;;2.30;97.30;;;;;;4919384;29;20662;-75
2020/12/04 18:04:47;;;;;;;33.93;15.70;;;2.30;97.30;;;;;;4919385;29;20252;-74
2020/12/04 18:07:14;;;;;;;36.30;17.33;;;2.30;97.30;;;;;;4919878;29;20417;-73
2020/12/04 18:09:44;;;;;;;92.37;50.87;;;2.30;97.30;;;;;;4920179;29;20537;-74
2020/12/04 18:12:10;;;;;;;33.97;17.20;;;2.30;97.30;;;;;;4919903;29;20444;-72
2020/12/04 18:14:36;;;;;;;35.93;18.87;;;2.30;97.30;;;;;;4919274;29;20433;-73
2020/12/04 18:17:05;;;;;;;33.27;18.67;;;2.50;97.30;;;;;;4919065;29;20436;-73
2020/12/04 18:19:31;;;;;;;35.33;17.40;;;2.50;97.30;;;;;;4919135;29;20682;-73
2020/12/04 18:21:58;;;;;;;34.37;17.67;;;2.50;97.30;;;;;;4918753;29;20468;-73
2020/12/04 18:24:24;;;;;;;33.50;16.47;;;2.50;97.30;;;;;;4918698;29;20425;-73
2020/12/04 18:26:51;;;;;;;29.93;16.10;;;2.70;97.30;;;;;;4919114;29;20510;-74
2020/12/04 18:29:17;;;;;;;33.27;18.33;;;2.80;97.30;;;;;;4919941;29;20420;-74
2020/12/04 18:31:48;;;;;;;35.13;19.10;;;2.80;97.30;;;;;;4920002;29;20440;-72
2020/12/04 18:34:14;;;;;;;40.40;23.53;;;2.80;97.30;;;;;;4918639;29;20515;-73
2020/12/04 18:36:39;;;;;;;36.13;17.43;;;2.70;97.30;;;;;;4918881;29;20427;-73
2020/12/04 18:39:05;;;;;;;36.00;16.87;;;2.70;97.30;;;;;;4919978;29;20415;-74
2020/12/04 18:41:30;;;;;;;38.80;16.87;;;2.70;97.30;;;;;;4919915;29;20299;-73
2020/12/04 18:43:56;;;;;;;36.53;19.00;;;2.80;97.30;;;;;;4919634;29;20193;-73
2020/12/04 18:46:22;;;;;;;38.33;21.10;;;2.70;97.30;;;;;;4918488;29;20177;-74
2020/12/04 18:48:47;;;;;;;37.03;17.70;;;2.80;97.30;;;;;;4918791;29;20240;-73
2020/12/04 18:51:13;;;;;;;36.27;18.53;;;2.80;97.30;;;;;;4918133;29;20220;-73